Time;durP1;ratioP1;P1;durP2;ratioP2;P2;SDS_P1;SDS_P2;PMS_P1;PMS_P2;Temp;Humidity;BMP_temperature;BMP_pressure;BME280_temperature;BME280_humidity;BME280_pressure;Samples;Min_cycle;Max_cycle;Signal;HPM_P1;HPM_P2
2022/09/14 00:00:08;;;;;;;8.48;2.58;;;;;;;;;;5015275;28;20095;-68
2022/09/14 00:02:35;;;;;;;11.25;2.70;;;;;;;;;;5018400;28;20049;-59
2022/09/14 00:05:03;;;;;;;8.68;2.10;;;;;;;;;;5018197;28;20046;-59
2022/09/14 00:07:37;;;;;;;17.13;2.67;;;;;;;;;;5001430;28;20053;-59
2022/09/14 00:10:04;;;;;;;12.43;2.10;;;;;;;;;;5015803;28;20050;-59
2022/09/14 00:12:38;;;;;;;8.43;2.40;;;;;;;;;;5013659;28;20133;-58
2022/09/14 00:15:06;;;;;;;11.15;2.17;;;;;;;;;;5014368;28;20046;-56
2022/09/14 00:17:33;;;;;;;10.48;2.30;;;;;;;;;;5015932;28;20058;-52
2022/09/14 00:20:07;;;;;;;11.77;2.40;;;;;;;;;;4998720;28;20054;-71
2022/09/14 00:22:34;;;;;;;11.30;2.00;;;;;;;;;;5016715;28;20526;-50
2022/09/14 00:25:22;;;;;;;11.80;2.00;;;;;;;;;;5015998;28;20054;-52
2022/09/14 00:27:56;;;;;;;10.20;1.95;;;;;;;;;;5015749;28;20052;-52
2022/09/14 00:30:30;;;;;;;14.30;1.90;;;;;;;;;;5014501;28;20049;-51
2022/09/14 00:32:57;;;;;;;9.88;2.00;;;;;;;;;;5013979;28;20402;-50
2022/09/14 00:35:24;;;;;;;5.55;1.65;;;;;;;;;;5017238;28;20041;-47
2022/09/14 00:37:58;;;;;;;12.68;2.15;;;;;;;;;;5015192;28;20045;-71
2022/09/14 00:40:25;;;;;;;8.95;1.83;;;;;;;;;;5018572;28;20153;-59
2022/09/14 00:42:59;;;;;;;7.43;1.70;;;;;;;;;;5018422;28;20053;-59
2022/09/14 00:45:27;;;;;;;14.30;1.90;;;;;;;;;;5013665;28;20058;-59
2022/09/14 00:48:01;;;;;;;5.45;1.40;;;;;;;;;;5015617;28;20505;-59
2022/09/14 00:50:28;;;;;;;13.98;1.73;;;;;;;;;;5017469;28;20046;-59
2022/09/14 00:52:55;;;;;;;6.43;1.48;;;;;;;;;;5014572;28;20444;-59
2022/09/14 00:55:29;;;;;;;10.90;1.38;;;;;;;;;;5016986;28;20053;-68
2022/09/14 00:57:56;;;;;;;10.63;1.13;;;;;;;;;;5019093;28;20046;-59
2022/09/14 01:00:30;;;;;;;12.15;1.40;;;;;;;;;;5018586;28;20056;-71
2022/09/14 01:02:57;;;;;;;12.23;1.25;;;;;;;;;;5018457;28;20053;-71
2022/09/14 01:05:43;;;;;;;11.32;1.55;;;;;;;;;;5018651;28;20073;-71
2022/09/14 01:08:25;;;;;;;10.60;1.33;;;;;;;;;;5018446;28;20766;-70
2022/09/14 01:10:58;;;;;;;5.38;1.05;;;;;;;;;;5016716;28;20046;-69
2022/09/14 01:13:35;;;;;;;7.72;1.17;;;;;;;;;;5021568;28;20046;-69
2022/09/14 01:16:06;;;;;;;8.98;1.70;;;;;;;;;;5017972;28;20045;-70
2022/09/14 01:18:44;;;;;;;5.20;1.20;;;;;;;;;;5018460;28;20045;-50
2022/09/14 01:21:15;;;;;;;13.90;1.90;;;;;;;;;;5018604;28;20068;-52
2022/09/14 01:24:07;;;;;;;6.25;1.25;;;;;;;;;;5018570;28;20061;-54
2022/09/14 01:26:50;;;;;;;12.90;1.05;;;;;;;;;;5019320;28;20311;-52
2022/09/14 01:29:24;;;;;;;5.55;1.23;;;;;;;;;;5019108;28;20068;-54
2022/09/14 01:32:00;;;;;;;8.18;1.17;;;;;;;;;;5000035;28;20049;-53
2022/09/14 01:34:38;;;;;;;4.63;1.30;;;;;;;;;;5020241;28;20401;-61
2022/09/14 01:37:11;;;;;;;9.50;1.00;;;;;;;;;;5018872;28;20050;-59
2022/09/14 01:39:48;;;;;;;12.50;1.83;;;;;;;;;;5016895;28;20052;-68
2022/09/14 01:42:16;;;;;;;4.20;1.00;;;;;;;;;;5016820;28;20099;-68
2022/09/14 01:44:52;;;;;;;7.40;1.58;;;;;;;;;;5013501;28;20077;-69
2022/09/14 01:47:27;;;;;;;6.40;1.00;;;;;;;;;;5017069;28;20076;-69
2022/09/14 01:50:14;;;;;;;9.60;1.10;;;;;;;;;;5017306;28;20045;-69
2022/09/14 01:52:50;;;;;;;3.35;0.95;;;;;;;;;;5016574;28;20803;-59
2022/09/14 01:55:30;;;;;;;3.72;1.10;;;;;;;;;;5021155;28;20493;-59
2022/09/14 01:57:57;;;;;;;11.15;1.20;;;;;;;;;;5016608;28;20505;-69
2022/09/14 02:00:31;;;;;;;5.38;1.17;;;;;;;;;;5017907;28;20049;-69
2022/09/14 02:03:04;;;;;;;8.52;1.67;;;;;;;;;;5017027;28;20053;-69
2022/09/14 02:05:57;;;;;;;9.85;1.30;;;;;;;;;;5015286;28;20046;-69
2022/09/14 02:08:26;;;;;;;6.13;1.13;;;;;;;;;;5020721;28;20045;-69
2022/09/14 02:11:00;;;;;;;7.45;1.13;;;;;;;;;;5016516;28;20053;-70
2022/09/14 02:13:28;;;;;;;9.23;1.17;;;;;;;;;;4999238;28;20067;-59
2022/09/14 02:15:55;;;;;;;;;;;;;;;;;;5018291;28;22154;-52
2022/09/14 02:18:30;;;;;;;16.50;1.35;;;;;;;;;;5004866;28;19921;-50
2022/09/14 02:21:03;;;;;;;4.32;1.05;;;;;;;;;;5013571;28;20050;-49
2022/09/14 02:23:50;;;;;;;6.43;0.93;;;;;;;;;;5017756;28;20049;-50
2022/09/14 02:26:24;;;;;;;8.75;1.35;;;;;;;;;;5017751;28;20045;-48
2022/09/14 02:28:58;;;;;;;8.55;1.17;;;;;;;;;;5017014;28;20057;-49
2022/09/14 02:31:29;;;;;;;4.78;1.20;;;;;;;;;;5016336;28;20053;-69
2022/09/14 02:34:22;;;;;;;6.28;1.38;;;;;;;;;;5018357;28;20053;-71
2022/09/14 02:37:12;;;;;;;6.32;1.10;;;;;;;;;;5019679;28;20064;-71
2022/09/14 02:39:46;;;;;;;6.72;1.38;;;;;;;;;;5008465;28;20048;-71
2022/09/14 02:42:33;;;;;;;4.28;0.80;;;;;;;;;;5021148;28;20060;-70
2022/09/14 02:45:26;;;;;;;6.25;1.08;;;;;;;;;;5016473;28;20727;-71
2022/09/14 02:48:32;;;;;;;10.68;1.40;;;;;;;;;;5013928;28;20052;-70
2022/09/14 02:51:06;;;;;;;9.25;1.08;;;;;;;;;;4958020;28;20422;-59
2022/09/14 02:53:55;;;;;;;6.80;1.20;;;;;;;;;;4945951;28;20039;-68
2022/09/14 02:56:29;;;;;;;6.30;0.90;;;;;;;;;;5000241;28;20049;-69
2022/09/14 02:58:56;;;;;;;3.45;1.45;;;;;;;;;;5015391;28;20051;-69
2022/09/14 03:01:30;;;;;;;6.93;1.80;;;;;;;;;;5015283;28;20064;-69
2022/09/14 03:03:57;;;;;;;7.15;1.10;;;;;;;;;;5019262;28;20124;-69
2022/09/14 03:06:31;;;;;;;6.75;1.10;;;;;;;;;;5015425;28;20068;-69
2022/09/14 03:08:59;;;;;;;3.92;1.10;;;;;;;;;;5017438;28;20811;-60
2022/09/14 03:11:26;;;;;;;2.83;0.82;;;;;;;;;;5019153;28;20053;-70
2022/09/14 03:14:00;;;;;;;7.63;1.00;;;;;;;;;;5015320;28;20527;-59
2022/09/14 03:16:27;;;;;;;11.50;0.98;;;;;;;;;;5012087;28;20050;-59
2022/09/14 03:19:01;;;;;;;3.33;1.08;;;;;;;;;;5018040;28;20545;-59
2022/09/14 03:21:28;;;;;;;4.45;0.85;;;;;;;;;;5014785;28;20057;-59
2022/09/14 03:23:56;;;;;;;3.67;0.80;;;;;;;;;;5015329;28;20049;-59
2022/09/14 03:26:37;;;;;;;6.10;1.13;;;;;;;;;;5016453;28;20049;-59
2022/09/14 03:29:05;;;;;;;8.15;1.10;;;;;;;;;;5017402;28;20068;-48
2022/09/14 03:31:39;;;;;;;3.22;0.80;;;;;;;;;;5016608;28;20548;-50
2022/09/14 03:34:06;;;;;;;2.40;1.13;;;;;;;;;;5015349;28;20144;-60
2022/09/14 03:36:40;;;;;;;5.65;1.00;;;;;;;;;;5015081;28;20053;-60
2022/09/14 03:39:08;;;;;;;2.47;0.63;;;;;;;;;;5017264;28;20046;-60
2022/09/14 03:41:35;;;;;;;;;;;;;;;;;;5017393;28;20594;-59
2022/09/14 03:44:09;;;;;;;5.13;1.00;;;;;;;;;;5014601;28;19932;-60
2022/09/14 03:46:36;;;;;;;10.48;1.15;;;;;;;;;;5015908;28;20511;-60
2022/09/14 03:49:10;;;;;;;6.05;1.50;;;;;;;;;;5012576;28;20091;-49
2022/09/14 03:51:37;;;;;;;6.78;0.93;;;;;;;;;;5016379;28;20045;-50
2022/09/14 03:54:11;;;;;;;11.60;1.10;;;;;;;;;;5018185;28;20049;-54
2022/09/14 03:56:39;;;;;;;11.77;1.27;;;;;;;;;;5014196;28;20109;-49
2022/09/14 03:59:08;;;;;;;6.28;1.02;;;;;;;;;;5016205;28;20049;-49
2022/09/14 04:01:42;;;;;;;6.18;1.38;;;;;;;;;;5014224;28;20041;-49
2022/09/14 04:04:09;;;;;;;11.43;1.60;;;;;;;;;;5019722;28;20049;-50
2022/09/14 04:06:37;;;;;;;5.70;1.40;;;;;;;;;;5019248;28;20050;-69
2022/09/14 04:09:10;;;;;;;10.68;1.80;;;;;;;;;;5017495;28;20480;-69
2022/09/14 04:11:37;;;;;;;9.90;1.92;;;;;;;;;;5016510;28;20154;-60
2022/09/14 04:14:11;;;;;;;13.18;1.80;;;;;;;;;;5014789;28;20053;-60
2022/09/14 04:16:39;;;;;;;5.35;1.48;;;;;;;;;;5015928;28;20045;-60
2022/09/14 04:19:06;;;;;;;;;;;;;;;;;;5014772;28;20092;-60
2022/09/14 04:21:40;;;;;;;9.68;1.90;;;;;;;;;;5014153;28;20308;-60
2022/09/14 04:24:09;;;;;;;6.35;1.75;;;;;;;;;;5015816;28;20057;-60
2022/09/14 04:26:51;;;;;;;3.78;1.20;;;;;;;;;;5012863;28;20051;-51
2022/09/14 04:29:18;;;;;;;5.43;1.50;;;;;;;;;;5015163;28;20057;-60
2022/09/14 04:31:52;;;;;;;9.35;1.60;;;;;;;;;;5017529;28;20049;-60
2022/09/14 04:34:19;;;;;;;11.10;1.75;;;;;;;;;;5012617;28;20049;-60
2022/09/14 04:36:47;;;;;;;25.42;2.30;;;;;;;;;;5018628;28;20057;-60
2022/09/14 04:39:21;;;;;;;21.83;2.42;;;;;;;;;;5016860;28;20050;-63
2022/09/14 04:41:48;;;;;;;83.43;5.30;;;;;;;;;;5018290;28;20069;-60
2022/09/14 04:44:22;;;;;;;7.10;2.05;;;;;;;;;;5018707;28;20496;-62
2022/09/14 04:46:49;;;;;;;28.42;2.22;;;;;;;;;;5017033;28;20049;-58
2022/09/14 04:49:17;;;;;;;10.45;1.83;;;;;;;;;;5020873;28;20069;-60
2022/09/14 04:51:51;;;;;;;10.70;2.05;;;;;;;;;;5019636;28;20049;-60
2022/09/14 04:54:18;;;;;;;8.57;2.60;;;;;;;;;;5015227;28;20053;-60
2022/09/14 04:56:52;;;;;;;11.73;2.30;;;;;;;;;;5020681;28;20056;-59
2022/09/14 04:59:19;;;;;;;13.10;1.92;;;;;;;;;;5015679;28;20049;-60
2022/09/14 05:01:47;;;;;;;;;;;;;;;;;;5009802;28;20046;-60
2022/09/14 05:04:21;;;;;;;9.63;2.00;;;;;;;;;;5019497;28;20004;-62
2022/09/14 05:06:49;;;;;;;11.55;2.30;;;;;;;;;;5018758;28;20053;-69
2022/09/14 05:09:23;;;;;;;6.22;2.30;;;;;;;;;;5020017;28;20045;-70
2022/09/14 05:11:51;;;;;;;55.10;3.28;;;;;;;;;;5020630;28;20055;-70
2022/09/14 05:14:18;;;;;;;81.93;5.30;;;;;;;;;;5017024;28;20046;-70
2022/09/14 05:16:52;;;;;;;13.65;2.75;;;;;;;;;;5019026;28;20057;-69
2022/09/14 05:19:19;;;;;;;10.32;2.35;;;;;;;;;;5019470;28;20539;-69
2022/09/14 05:21:53;;;;;;;19.05;2.72;;;;;;;;;;5020293;28;20045;-69
2022/09/14 05:24:27;;;;;;;9.65;2.30;;;;;;;;;;5020406;28;20060;-62
2022/09/14 05:27:00;;;;;;;7.30;2.17;;;;;;;;;;5020514;28;20057;-60
2022/09/14 05:29:28;;;;;;;8.60;2.42;;;;;;;;;;5017429;28;20045;-60
2022/09/14 05:31:55;;;;;;;;;;;;;;;;;;5022104;28;20053;-60
2022/09/14 05:34:29;;;;;;;5.35;2.10;;;;;;;;;;5019937;28;20303;-60
2022/09/14 05:36:56;;;;;;;4.32;1.80;;;;;;;;;;5018626;28;20896;-60
2022/09/14 05:39:30;;;;;;;7.38;1.80;;;;;;;;;;5018967;28;20124;-61
2022/09/14 05:41:57;;;;;;;8.77;1.90;;;;;;;;;;5017933;28;20516;-62
2022/09/14 05:44:24;;;;;;;9.45;2.28;;;;;;;;;;5020177;28;20044;-59
2022/09/14 05:46:58;;;;;;;15.05;2.97;;;;;;;;;;5021904;28;20052;-60
2022/09/14 05:49:25;;;;;;;13.32;3.53;;;;;;;;;;5018848;28;20050;-60
2022/09/14 05:51:59;;;;;;;10.52;3.00;;;;;;;;;;5017379;28;20045;-60
2022/09/14 05:54:27;;;;;;;8.95;2.92;;;;;;;;;;5016407;28;20060;-60
2022/09/14 05:56:54;;;;;;;11.18;3.28;;;;;;;;;;5018516;28;20053;-60
2022/09/14 05:59:30;;;;;;;8.93;3.25;;;;;;;;;;5016484;28;20050;-60
2022/09/14 06:01:58;;;;;;;12.40;3.55;;;;;;;;;;5015982;28;20091;-54
2022/09/14 06:04:32;;;;;;;12.88;3.00;;;;;;;;;;5015036;28;20064;-61
2022/09/14 06:07:00;;;;;;;;;;;;;;;;;;5017755;28;20053;-62
2022/09/14 06:09:44;;;;;;;10.43;2.95;;;;;;;;;;5018883;28;19929;-61
2022/09/14 06:12:18;;;;;;;8.35;2.67;;;;;;;;;;5018341;28;20410;-61
2022/09/14 06:14:52;;;;;;;7.22;2.42;;;;;;;;;;5005758;28;20535;-62
2022/09/14 06:17:28;;;;;;;12.95;2.58;;;;;;;;;;5016985;28;20056;-62
2022/09/14 06:19:55;;;;;;;14.55;2.88;;;;;;;;;;5014928;28;20041;-50
2022/09/14 06:22:28;;;;;;;7.13;2.35;;;;;;;;;;5014716;28;20053;-60
2022/09/14 06:25:16;;;;;;;14.23;3.05;;;;;;;;;;5009344;28;20057;-62
2022/09/14 06:27:52;;;;;;;5.90;2.40;;;;;;;;;;4998103;28;20052;-62
2022/09/14 06:30:26;;;;;;;18.23;2.72;;;;;;;;;;4997638;28;20053;-62
2022/09/14 06:32:53;;;;;;;17.75;3.47;;;;;;;;;;4995097;28;20053;-62
2022/09/14 06:35:21;;;;;;;12.30;2.60;;;;;;;;;;4998783;28;20422;-62
2022/09/14 06:37:58;;;;;;;12.85;2.80;;;;;;;;;;4999787;28;20089;-62
2022/09/14 06:40:25;;;;;;;9.68;2.70;;;;;;;;;;4989480;28;20054;-62
2022/09/14 06:43:01;;;;;;;11.85;2.42;;;;;;;;;;4996077;28;20050;-51
2022/09/14 06:45:29;;;;;;;6.47;2.10;;;;;;;;;;4999256;28;20466;-48
2022/09/14 06:47:57;;;;;;;7.68;2.47;;;;;;;;;;5001331;28;20575;-48
2022/09/14 06:50:31;;;;;;;13.63;2.47;;;;;;;;;;4997678;28;20516;-51
2022/09/14 06:52:59;;;;;;;16.25;2.60;;;;;;;;;;4998898;28;20509;-53
2022/09/14 06:55:33;;;;;;;11.45;2.30;;;;;;;;;;4992966;28;20049;-50
2022/09/14 06:58:00;;;;;;;6.40;2.25;;;;;;;;;;4996570;28;20053;-60
2022/09/14 07:00:35;;;;;;;9.30;2.63;;;;;;;;;;4992002;28;20046;-50
2022/09/14 07:03:02;;;;;;;12.07;2.13;;;;;;;;;;4997884;28;20398;-60
2022/09/14 07:05:29;;;;;;;12.13;2.83;;;;;;;;;;4998776;28;20768;-60
2022/09/14 07:08:03;;;;;;;8.27;2.20;;;;;;;;;;4995953;28;20065;-60
2022/09/14 07:10:35;;;;;;;7.90;2.20;;;;;;;;;;4987339;28;20503;-60
2022/09/14 07:13:08;;;;;;;18.35;2.33;;;;;;;;;;4997010;28;20151;-60
2022/09/14 07:15:35;;;;;;;5.53;1.75;;;;;;;;;;4997314;28;20053;-61
2022/09/14 07:18:09;;;;;;;11.40;2.05;;;;;;;;;;4997061;28;20056;-52
2022/09/14 07:20:36;;;;;;;8.93;1.65;;;;;;;;;;4989573;28;20042;-60
2022/09/14 13:15:57;;;;;;;4.60;1.00;;;;;;;;;;5825622;22;8412219;-75
2022/09/14 13:18:33;;;;;;;1.55;0.52;;;;;;;;;;6180109;23;20462;-75
2022/09/14 13:21:19;;;;;;;5.55;0.60;;;;;;;;;;6180986;23;20063;-75
2022/09/14 13:23:47;;;;;;;4.50;0.82;;;;;;;;;;6180481;23;20028;-74
2022/09/14 13:26:21;;;;;;;2.47;0.65;;;;;;;;;;6180494;23;20520;-75
2022/09/14 13:28:48;;;;;;;;;;;;;;;;;;6182129;23;20027;-75
2022/09/14 13:31:28;;;;;;;4.57;0.80;;;;;;;;;;6180603;23;20014;-75
2022/09/14 13:33:56;;;;;;;7.57;0.85;;;;;;;;;;6179929;23;20404;-75
2022/09/14 13:36:31;;;;;;;3.80;0.57;;;;;;;;;;6181205;23;20096;-75
2022/09/14 13:39:00;;;;;;;5.22;0.63;;;;;;;;;;6179263;23;20024;-75
2022/09/14 13:41:34;;;;;;;2.08;0.50;;;;;;;;;;6180662;23;20027;-74
2022/09/14 13:44:01;;;;;;;;;;;;;;;;;;6181418;23;20025;-75
2022/09/14 13:46:36;;;;;;;5.05;1.02;;;;;;;;;;6179987;23;19926;-75
2022/09/14 13:49:05;;;;;;;1.60;0.63;;;;;;;;;;6179831;23;20508;-74
2022/09/14 13:51:39;;;;;;;2.78;0.70;;;;;;;;;;6182006;23;20025;-75
2022/09/14 13:54:06;;;;;;;;;;;;;;;;;;6182341;23;20113;-75
2022/09/14 13:56:40;;;;;;;3.42;0.60;;;;;;;;;;6180330;23;19955;-75
2022/09/14 13:59:07;;;;;;;;;;;;;;;;;;6179976;23;20398;-75
2022/09/14 14:01:43;;;;;;;1.38;0.32;;;;;;;;;;6180594;23;20476;-74
2022/09/14 14:04:28;;;;;;;4.47;0.77;;;;;;;;;;6179083;23;20029;-74
2022/09/14 14:07:19;;;;;;;3.97;0.85;;;;;;;;;;6181216;23;20031;-75
2022/09/14 14:09:56;;;;;;;1.60;0.73;;;;;;;;;;6179971;23;20022;-74
2022/09/14 14:12:42;;;;;;;3.65;1.13;;;;;;;;;;6180562;23;20542;-74
2022/09/14 14:15:18;;;;;;;3.40;1.55;;;;;;;;;;6181266;23;20025;-75
2022/09/14 14:17:52;;;;;;;3.35;0.80;;;;;;;;;;6181123;23;20031;-74
2022/09/14 14:20:25;;;;;;;3.75;1.08;;;;;;;;;;6180813;23;20048;-75
2022/09/14 14:23:18;;;;;;;4.55;0.70;;;;;;;;;;6155892;23;20099;-75
2022/09/14 14:25:53;;;;;;;6.18;1.00;;;;;;;;;;6178285;23;20328;-74
2022/09/14 14:28:29;;;;;;;2.25;0.70;;;;;;;;;;6181576;23;20096;-75
2022/09/14 14:30:57;;;;;;;2.97;0.85;;;;;;;;;;6181481;23;20025;-76
2022/09/14 14:33:35;;;;;;;3.05;0.93;;;;;;;;;;6179859;23;20025;-75
2022/09/14 14:36:08;;;;;;;2.35;0.63;;;;;;;;;;6153754;23;20092;-74
2022/09/14 14:38:43;;;;;;;2.47;0.65;;;;;;;;;;6180040;23;20027;-75
2022/09/14 14:41:18;;;;;;;2.95;0.60;;;;;;;;;;6180376;23;20600;-74
2022/09/14 14:43:52;;;;;;;3.75;0.70;;;;;;;;;;6180719;23;20023;-75
2022/09/14 14:46:19;;;;;;;2.60;0.88;;;;;;;;;;6179646;23;20055;-74
2022/09/14 14:48:47;;;;;;;5.82;0.93;;;;;;;;;;6180334;23;20025;-75
2022/09/14 14:51:21;;;;;;;5.43;0.82;;;;;;;;;;6181128;23;20303;-75
2022/09/14 14:53:48;;;;;;;7.10;1.20;;;;;;;;;;6180816;23;20025;-74
2022/09/14 14:56:22;;;;;;;5.88;0.82;;;;;;;;;;6177740;23;20021;-74
2022/09/14 14:58:49;;;;;;;4.63;1.27;;;;;;;;;;6180971;23;20081;-74
2022/09/14 15:01:28;;;;;;;3.45;0.85;;;;;;;;;;6179837;23;20071;-74
2022/09/14 15:03:56;;;;;;;3.92;1.17;;;;;;;;;;6180379;23;20052;-75
2022/09/14 15:06:30;;;;;;;5.78;1.33;;;;;;;;;;6180815;23;20052;-75
2022/09/14 15:08:57;;;;;;;3.72;1.10;;;;;;;;;;6153771;23;20056;-74
2022/09/14 15:11:24;;;;;;;3.70;0.85;;;;;;;;;;6179664;23;20025;-74
2022/09/14 15:14:05;;;;;;;6.45;1.05;;;;;;;;;;6180341;23;20128;-74
2022/09/14 15:16:32;;;;;;;4.75;1.27;;;;;;;;;;6179226;23;20021;-75
2022/09/14 15:19:06;;;;;;;7.28;1.20;;;;;;;;;;6179832;23;20021;-74
2022/09/14 15:21:33;;;;;;;2.58;0.70;;;;;;;;;;6180279;23;20021;-75
2022/09/14 15:24:01;;;;;;;3.33;1.02;;;;;;;;;;6152548;23;20025;-74
2022/09/14 15:26:35;;;;;;;3.92;0.98;;;;;;;;;;6178623;23;20021;-75
2022/09/14 15:29:03;;;;;;;3.08;0.70;;;;;;;;;;6179742;23;20048;-75
2022/09/14 15:31:37;;;;;;;1.98;0.85;;;;;;;;;;6175129;23;20025;-73
2022/09/14 15:34:04;;;;;;;2.47;0.85;;;;;;;;;;6178627;23;20501;-75
2022/09/14 15:36:34;;;;;;;8.20;1.20;;;;;;;;;;6153367;23;20021;-74
2022/09/14 15:39:10;;;;;;;3.67;1.27;;;;;;;;;;6178910;23;20358;-74
2022/09/14 15:41:37;;;;;;;5.20;1.40;;;;;;;;;;6179829;23;20414;-75
2022/09/14 15:44:06;;;;;;;5.85;1.15;;;;;;;;;;6180788;23;20025;-75
2022/09/14 15:46:40;;;;;;;2.60;0.82;;;;;;;;;;6178729;23;20040;-74
2022/09/14 15:49:10;;;;;;;6.80;1.00;;;;;;;;;;6179116;23;20029;-75
2022/09/14 15:51:37;;;;;;;3.22;1.02;;;;;;;;;;6176718;23;20025;-74
2022/09/14 15:54:11;;;;;;;5.40;1.55;;;;;;;;;;6175773;23;20075;-74
2022/09/14 15:56:38;;;;;;;8.70;1.25;;;;;;;;;;6149290;23;20676;-74
2022/09/14 15:59:12;;;;;;;7.53;1.20;;;;;;;;;;6175805;23;20470;-74
2022/09/14 16:01:39;;;;;;;2.78;0.85;;;;;;;;;;6175503;23;20100;-74
2022/09/14 16:04:07;;;;;;;3.35;1.33;;;;;;;;;;6175828;23;20320;-74
2022/09/14 16:06:41;;;;;;;4.68;0.93;;;;;;;;;;6175345;23;20669;-74
2022/09/14 16:09:09;;;;;;;4.55;1.42;;;;;;;;;;6174331;23;20096;-74
2022/09/14 16:11:37;;;;;;;2.53;0.75;;;;;;;;;;6176343;23;20317;-74
2022/09/14 16:14:24;;;;;;;5.00;1.38;;;;;;;;;;6176295;23;20033;-74
2022/09/14 16:16:58;;;;;;;7.57;1.30;;;;;;;;;;6175483;23;20047;-74
2022/09/14 16:19:32;;;;;;;8.23;1.25;;;;;;;;;;6177056;23;20025;-74
2022/09/14 16:21:59;;;;;;;7.68;1.58;;;;;;;;;;6176946;23;20024;-74
2022/09/14 16:24:26;;;;;;;4.53;1.23;;;;;;;;;;6177399;23;20017;-74
2022/09/14 16:27:00;;;;;;;2.72;1.08;;;;;;;;;;6175901;23;20068;-74
2022/09/14 16:29:27;;;;;;;9.13;1.27;;;;;;;;;;6175807;23;20537;-74
2022/09/14 16:31:54;;;;;;;8.40;1.60;;;;;;;;;;6149868;23;20100;-74
2022/09/14 16:34:29;;;;;;;10.68;1.90;;;;;;;;;;6176472;23;20025;-75
2022/09/14 16:36:57;;;;;;;10.93;2.38;;;;;;;;;;6175403;23;20541;-74
2022/09/14 16:39:33;;;;;;;9.65;1.95;;;;;;;;;;6175746;23;20508;-75
2022/09/14 16:42:01;;;;;;;11.25;2.25;;;;;;;;;;6174270;23;20441;-74
2022/09/14 16:44:28;;;;;;;;;;;;;;;;;;6147102;23;20105;-74
2022/09/14 16:47:02;;;;;;;9.38;1.98;;;;;;;;;;6176664;23;19920;-74
2022/09/14 16:49:29;;;;;;;13.82;2.35;;;;;;;;;;6176394;23;20023;-75
2022/09/14 16:51:59;;;;;;;9.13;1.98;;;;;;;;;;6175730;23;20207;-74
2022/09/14 16:54:40;;;;;;;14.18;2.15;;;;;;;;;;6152865;23;20025;-74
2022/09/14 16:57:07;;;;;;;13.50;2.42;;;;;;;;;;6178531;23;20021;-74
2022/09/14 16:59:41;;;;;;;12.52;2.17;;;;;;;;;;6177142;23;20437;-74
2022/09/14 17:02:10;;;;;;;11.63;2.65;;;;;;;;;;6177517;23;20336;-74
2022/09/14 17:04:37;;;;;;;12.57;2.40;;;;;;;;;;6177425;23;20397;-74
2022/09/14 17:07:11;;;;;;;16.02;2.60;;;;;;;;;;6176987;23;20025;-74
2022/09/14 17:09:40;;;;;;;14.82;2.83;;;;;;;;;;6175281;23;20071;-74
2022/09/14 17:12:14;;;;;;;13.38;2.47;;;;;;;;;;6178201;23;20455;-74
2022/09/14 17:14:58;;;;;;;19.65;3.17;;;;;;;;;;6176396;23;20221;-75
2022/09/14 17:17:32;;;;;;;11.82;2.38;;;;;;;;;;6177935;23;20025;-74
2022/09/14 17:19:59;;;;;;;14.70;2.65;;;;;;;;;;6178285;23;20096;-74
2022/09/14 17:22:26;;;;;;;13.55;2.33;;;;;;;;;;6177253;23;20029;-74
2022/09/14 17:25:00;;;;;;;9.70;2.58;;;;;;;;;;6177611;23;20025;-74
2022/09/14 17:27:27;;;;;;;15.73;2.38;;;;;;;;;;6176819;23;20335;-74
2022/09/14 17:30:01;;;;;;;12.43;2.28;;;;;;;;;;6175494;23;20021;-74
2022/09/14 17:32:28;;;;;;;12.38;2.58;;;;;;;;;;6174569;23;20529;-73
2022/09/14 17:34:55;;;;;;;14.07;2.90;;;;;;;;;;6176211;23;20035;-74
2022/09/14 17:37:29;;;;;;;15.68;2.92;;;;;;;;;;6176600;23;20363;-74
2022/09/14 17:39:57;;;;;;;18.33;3.17;;;;;;;;;;6177367;23;20105;-74
2022/09/14 17:42:31;;;;;;;18.35;3.15;;;;;;;;;;6176727;23;20025;-74
2022/09/14 17:44:58;;;;;;;14.70;2.17;;;;;;;;;;6177314;23;20021;-74
2022/09/14 17:47:26;;;;;;;11.02;2.30;;;;;;;;;;6175967;23;20108;-74
2022/09/14 17:50:00;;;;;;;16.00;2.75;;;;;;;;;;6154302;23;20021;-74
2022/09/14 17:52:27;;;;;;;15.32;3.65;;;;;;;;;;6175403;23;20063;-75
2022/09/14 17:54:54;;;;;;;13.00;2.58;;;;;;;;;;6150593;23;20025;-74
2022/09/14 17:57:28;;;;;;;20.90;3.08;;;;;;;;;;6176167;23;20025;-74
2022/09/14 18:00:03;;;;;;;14.50;2.85;;;;;;;;;;6152200;23;20107;-74
2022/09/14 18:02:30;;;;;;;10.65;2.42;;;;;;;;;;6177110;23;20021;-74
2022/09/14 18:04:59;;;;;;;20.10;3.47;;;;;;;;;;6177415;23;20037;-74
2022/09/14 18:07:33;;;;;;;19.95;2.67;;;;;;;;;;6176709;23;20021;-75
2022/09/14 18:10:00;;;;;;;20.52;3.28;;;;;;;;;;6177250;23;20031;-74
2022/09/14 18:12:27;;;;;;;19.58;3.22;;;;;;;;;;6177943;23;20355;-74
2022/09/14 18:15:08;;;;;;;19.38;4.07;;;;;;;;;;6177139;23;20532;-74
2022/09/14 18:17:51;;;;;;;19.50;3.13;;;;;;;;;;6174024;23;20029;-74
2022/09/14 18:20:18;;;;;;;15.60;3.35;;;;;;;;;;6176374;23;20035;-74
2022/09/14 18:22:54;;;;;;;20.15;2.85;;;;;;;;;;6178052;23;20108;-74
2022/09/14 18:25:21;;;;;;;16.27;2.90;;;;;;;;;;6150659;23;20096;-74
2022/09/14 18:27:48;;;;;;;13.10;2.92;;;;;;;;;;6176839;23;20056;-74
2022/09/14 18:30:22;;;;;;;13.70;2.83;;;;;;;;;;6177543;23;20020;-74
2022/09/14 18:32:49;;;;;;;21.15;3.10;;;;;;;;;;6175287;23;20203;-74
2022/09/14 18:35:17;;;;;;;15.00;2.80;;;;;;;;;;6176207;23;20029;-74
2022/09/14 18:37:51;;;;;;;19.25;3.22;;;;;;;;;;6178099;23;20103;-74
2022/09/14 18:40:18;;;;;;;21.52;3.10;;;;;;;;;;6176871;23;20028;-73
2022/09/14 18:42:52;;;;;;;20.10;3.72;;;;;;;;;;6176079;23;20087;-74
2022/09/14 18:45:19;;;;;;;18.65;3.03;;;;;;;;;;6176884;23;20031;-74
2022/09/14 18:47:53;;;;;;;20.15;3.25;;;;;;;;;;6177052;23;20440;-77
2022/09/14 18:50:27;;;;;;;18.88;3.25;;;;;;;;;;6175489;23;20021;-74
2022/09/14 18:53:07;;;;;;;25.83;4.13;;;;;;;;;;6151120;23;20031;-74
2022/09/14 18:55:34;;;;;;;23.20;3.22;;;;;;;;;;6176829;23;20104;-74
2022/09/14 18:58:08;;;;;;;18.80;2.85;;;;;;;;;;6175957;23;20478;-74
2022/09/14 19:00:36;;;;;;;17.35;3.33;;;;;;;;;;6176019;23;20028;-74
2022/09/14 19:03:03;;;;;;;19.20;3.20;;;;;;;;;;6175948;23;20029;-74
2022/09/14 19:05:40;;;;;;;14.50;3.28;;;;;;;;;;6173630;23;20027;-74
2022/09/14 19:08:12;;;;;;;17.75;2.50;;;;;;;;;;6175965;23;20394;-75
2022/09/14 19:10:46;;;;;;;15.32;3.22;;;;;;;;;;6175840;23;20537;-74
2022/09/14 19:13:13;;;;;;;16.33;3.00;;;;;;;;;;6176489;23;20031;-75
2022/09/14 19:15:40;;;;;;;18.20;2.65;;;;;;;;;;6175329;23;20108;-75
2022/09/14 19:18:14;;;;;;;22.00;3.00;;;;;;;;;;6149372;23;20025;-75
2022/09/14 19:20:49;;;;;;;12.88;2.97;;;;;;;;;;6176763;23;20029;-74
2022/09/14 19:23:32;;;;;;;19.65;3.53;;;;;;;;;;6174180;23;20444;-74
2022/09/14 19:26:07;;;;;;;17.13;3.00;;;;;;;;;;6172327;23;20027;-75
2022/09/14 19:28:35;;;;;;;16.00;2.75;;;;;;;;;;6149973;23;20028;-75
2022/09/14 19:31:13;;;;;;;18.65;2.92;;;;;;;;;;6176576;23;20024;-74
2022/09/14 19:33:41;;;;;;;20.90;3.22;;;;;;;;;;6149498;23;20071;-75
2022/09/14 19:36:14;;;;;;;17.40;3.25;;;;;;;;;;6175164;23;20029;-75
2022/09/14 19:38:49;;;;;;;17.77;3.58;;;;;;;;;;6176045;23;20498;-75
2022/09/14 19:41:22;;;;;;;19.48;3.33;;;;;;;;;;6177622;23;20064;-74
2022/09/14 19:43:49;;;;;;;12.80;3.20;;;;;;;;;;6176570;23;20025;-75
2022/09/14 19:46:22;;;;;;;21.58;3.53;;;;;;;;;;6175785;23;20047;-75
2022/09/14 19:48:56;;;;;;;22.70;3.70;;;;;;;;;;6151124;23;20029;-76
2022/09/14 19:51:25;;;;;;;18.42;3.33;;;;;;;;;;6176217;23;20523;-75
2022/09/14 19:53:59;;;;;;;20.88;3.78;;;;;;;;;;6176739;23;20115;-74
2022/09/14 19:56:26;;;;;;;;;;;;;;;;;;6150930;23;20036;-75
2022/09/14 19:58:55;;;;;;;22.15;3.65;;;;;;;;;;6148363;23;20390;-75
2022/09/14 20:01:30;;;;;;;16.38;3.08;;;;;;;;;;6176527;23;20029;-75
2022/09/14 20:03:57;;;;;;;18.23;3.55;;;;;;;;;;6177067;23;20096;-75
2022/09/14 20:06:33;;;;;;;18.92;3.38;;;;;;;;;;6176343;23;20092;-74
2022/09/14 20:09:02;;;;;;;24.45;3.70;;;;;;;;;;6175013;23;20035;-74
2022/09/14 20:11:30;;;;;;;20.60;3.58;;;;;;;;;;6176881;23;20024;-75
2022/09/14 20:14:21;;;;;;;15.70;3.28;;;;;;;;;;6175506;23;20350;-75
2022/09/14 20:16:56;;;;;;;16.55;2.97;;;;;;;;;;6174812;23;20429;-75
2022/09/14 20:19:31;;;;;;;17.83;3.40;;;;;;;;;;6175405;23;20035;-74
2022/09/14 20:21:58;;;;;;;20.95;3.17;;;;;;;;;;6175827;23;20383;-74
2022/09/14 20:24:27;;;;;;;26.58;3.20;;;;;;;;;;6149696;23;20032;-75
2022/09/14 20:27:01;;;;;;;28.20;3.65;;;;;;;;;;6149210;23;20025;-74
2022/09/14 20:29:29;;;;;;;20.38;4.00;;;;;;;;;;6175240;23;20025;-75
2022/09/14 20:31:57;;;;;;;19.05;3.15;;;;;;;;;;6149687;23;20108;-74
2022/09/14 20:34:31;;;;;;;20.92;4.10;;;;;;;;;;6175648;23;20104;-74
2022/09/14 20:36:59;;;;;;;13.23;3.20;;;;;;;;;;6149916;23;20037;-75
2022/09/14 20:39:26;;;;;;;23.25;3.35;;;;;;;;;;6176900;23;20104;-76
2022/09/14 20:42:00;;;;;;;23.05;3.72;;;;;;;;;;6153615;23;20096;-75
2022/09/14 20:44:27;;;;;;;18.10;3.00;;;;;;;;;;6129052;23;20020;-74
2022/09/14 20:47:01;;;;;;;19.83;3.75;;;;;;;;;;6155590;23;20092;-75
2022/09/14 20:49:29;;;;;;;;;;;;;;;;;;6179785;23;20031;-74
2022/09/14 20:51:57;;;;;;;25.33;3.50;;;;;;;;;;6180211;23;20206;-74
2022/09/14 20:54:31;;;;;;;16.02;3.45;;;;;;;;;;6179073;23;20288;-74
2022/09/14 20:56:58;;;;;;;18.75;3.33;;;;;;;;;;6178970;23;20025;-75
2022/09/14 20:59:30;;;;;;;24.40;3.90;;;;;;;;;;6177395;23;20025;-74
2022/09/14 21:02:04;;;;;;;16.23;4.03;;;;;;;;;;6179798;23;20462;-75